sensor_id;sensor_type;location;lat;lon;timestamp;temperature;humidity
71082;SHT31;58740;50.672;18.690;2022-10-16T00:01:43;14.15;76.75
71082;SHT31;58740;50.672;18.690;2022-10-16T00:04:11;14.15;76.72
71082;SHT31;58740;50.672;18.690;2022-10-16T00:06:39;14.17;76.73
71082;SHT31;58740;50.672;18.690;2022-10-16T00:09:07;14.16;76.73
71082;SHT31;58740;50.672;18.690;2022-10-16T00:11:37;14.14;76.75
71082;SHT31;58740;50.672;18.690;2022-10-16T00:14:09;14.15;76.77
71082;SHT31;58740;50.672;18.690;2022-10-16T00:16:41;14.16;76.80
71082;SHT31;58740;50.672;18.690;2022-10-16T00:19:10;14.16;76.85
71082;SHT31;58740;50.672;18.690;2022-10-16T00:21:39;14.14;76.85
71082;SHT31;58740;50.672;18.690;2022-10-16T00:24:08;14.12;76.91
71082;SHT31;58740;50.672;18.690;2022-10-16T00:26:38;14.11;77.04
71082;SHT31;58740;50.672;18.690;2022-10-16T00:29:07;14.09;76.95
71082;SHT31;58740;50.672;18.690;2022-10-16T00:31:35;14.10;76.96
71082;SHT31;58740;50.672;18.690;2022-10-16T00:34:02;14.11;77.02
71082;SHT31;58740;50.672;18.690;2022-10-16T00:36:30;14.11;77.02
71082;SHT31;58740;50.672;18.690;2022-10-16T00:38:59;14.10;77.09
71082;SHT31;58740;50.672;18.690;2022-10-16T00:41:29;14.08;77.15
71082;SHT31;58740;50.672;18.690;2022-10-16T00:43:59;14.08;77.09
71082;SHT31;58740;50.672;18.690;2022-10-16T00:46:35;14.07;77.09
71082;SHT31;58740;50.672;18.690;2022-10-16T00:51:46;14.05;77.21
71082;SHT31;58740;50.672;18.690;2022-10-16T00:54:19;14.07;77.18
71082;SHT31;58740;50.672;18.690;2022-10-16T00:56:55;14.07;77.15
71082;SHT31;58740;50.672;18.690;2022-10-16T00:59:28;14.06;77.18
71082;SHT31;58740;50.672;18.690;2022-10-16T01:01:59;14.05;77.29
71082;SHT31;58740;50.672;18.690;2022-10-16T01:04:29;14.04;77.27
71082;SHT31;58740;50.672;18.690;2022-10-16T01:18:23;13.99;77.45
71082;SHT31;58740;50.672;18.690;2022-10-16T01:32:39;13.95;77.48
71082;SHT31;58740;50.672;18.690;2022-10-16T01:35:11;14.00;77.40
71082;SHT31;58740;50.672;18.690;2022-10-16T01:40:38;14.00;77.32
71082;SHT31;58740;50.672;18.690;2022-10-16T01:43:15;14.01;77.31
71082;SHT31;58740;50.672;18.690;2022-10-16T01:45:49;14.01;77.30
71082;SHT31;58740;50.672;18.690;2022-10-16T01:48:19;14.03;77.27
71082;SHT31;58740;50.672;18.690;2022-10-16T01:53:48;14.05;77.20
71082;SHT31;58740;50.672;18.690;2022-10-16T01:56:21;14.06;77.20
71082;SHT31;58740;50.672;18.690;2022-10-16T01:59:06;14.04;77.23
71082;SHT31;58740;50.672;18.690;2022-10-16T02:01:45;14.00;77.24
71082;SHT31;58740;50.672;18.690;2022-10-16T02:07:25;13.98;77.31
71082;SHT31;58740;50.672;18.690;2022-10-16T02:09:52;14.00;77.31
71082;SHT31;58740;50.672;18.690;2022-10-16T02:12:28;14.00;77.29
71082;SHT31;58740;50.672;18.690;2022-10-16T02:15:02;13.97;77.32
71082;SHT31;58740;50.672;18.690;2022-10-16T02:17:31;13.97;77.31
71082;SHT31;58740;50.672;18.690;2022-10-16T02:19:58;13.98;77.33
71082;SHT31;58740;50.672;18.690;2022-10-16T02:22:32;13.98;77.31
71082;SHT31;58740;50.672;18.690;2022-10-16T02:25:24;14.00;77.28
71082;SHT31;58740;50.672;18.690;2022-10-16T02:28:18;14.01;77.23
71082;SHT31;58740;50.672;18.690;2022-10-16T02:30:58;14.00;77.20
71082;SHT31;58740;50.672;18.690;2022-10-16T02:33:32;13.98;77.28
71082;SHT31;58740;50.672;18.690;2022-10-16T02:36:03;13.95;77.32
71082;SHT31;58740;50.672;18.690;2022-10-16T02:38:32;13.93;77.36
71082;SHT31;58740;50.672;18.690;2022-10-16T02:41:00;13.94;77.33
71082;SHT31;58740;50.672;18.690;2022-10-16T02:43:28;13.97;77.30
71082;SHT31;58740;50.672;18.690;2022-10-16T02:45:55;14.01;77.21
71082;SHT31;58740;50.672;18.690;2022-10-16T02:48:23;14.04;77.21
71082;SHT31;58740;50.672;18.690;2022-10-16T02:50:51;14.06;77.19
71082;SHT31;58740;50.672;18.690;2022-10-16T02:53:19;14.06;77.20
71082;SHT31;58740;50.672;18.690;2022-10-16T02:55:47;14.05;77.20
71082;SHT31;58740;50.672;18.690;2022-10-16T02:58:14;14.05;77.19
71082;SHT31;58740;50.672;18.690;2022-10-16T03:00:42;14.06;77.20
71082;SHT31;58740;50.672;18.690;2022-10-16T03:03:10;14.08;77.18
71082;SHT31;58740;50.672;18.690;2022-10-16T03:05:38;14.09;77.18
71082;SHT31;58740;50.672;18.690;2022-10-16T03:08:05;14.09;77.17
71082;SHT31;58740;50.672;18.690;2022-10-16T03:10:33;14.10;77.19
71082;SHT31;58740;50.672;18.690;2022-10-16T03:13:00;14.10;77.16
71082;SHT31;58740;50.672;18.690;2022-10-16T03:15:28;14.12;77.12
71082;SHT31;58740;50.672;18.690;2022-10-16T03:17:59;14.14;77.17
71082;SHT31;58740;50.672;18.690;2022-10-16T03:20:27;14.17;77.09
71082;SHT31;58740;50.672;18.690;2022-10-16T03:22:55;14.20;77.05
71082;SHT31;58740;50.672;18.690;2022-10-16T03:25:22;14.23;77.02
71082;SHT31;58740;50.672;18.690;2022-10-16T03:27:50;14.22;77.00
71082;SHT31;58740;50.672;18.690;2022-10-16T03:30:18;14.22;77.00
71082;SHT31;58740;50.672;18.690;2022-10-16T03:32:46;14.23;76.98
71082;SHT31;58740;50.672;18.690;2022-10-16T03:35:13;14.26;76.92
71082;SHT31;58740;50.672;18.690;2022-10-16T03:37:41;14.28;76.84
71082;SHT31;58740;50.672;18.690;2022-10-16T03:40:08;14.29;76.81
71082;SHT31;58740;50.672;18.690;2022-10-16T03:42:37;14.29;76.80
71082;SHT31;58740;50.672;18.690;2022-10-16T03:45:04;14.28;76.77
71082;SHT31;58740;50.672;18.690;2022-10-16T03:47:33;14.29;76.79
71082;SHT31;58740;50.672;18.690;2022-10-16T03:50:01;14.28;76.73
71082;SHT31;58740;50.672;18.690;2022-10-16T03:52:29;14.27;76.73
71082;SHT31;58740;50.672;18.690;2022-10-16T03:54:57;14.27;76.77
71082;SHT31;58740;50.672;18.690;2022-10-16T03:57:25;14.29;76.77
71082;SHT31;58740;50.672;18.690;2022-10-16T03:59:53;14.28;76.75
71082;SHT31;58740;50.672;18.690;2022-10-16T04:02:20;14.29;76.73
71082;SHT31;58740;50.672;18.690;2022-10-16T04:04:48;14.31;76.72
71082;SHT31;58740;50.672;18.690;2022-10-16T04:07:16;14.30;76.70
71082;SHT31;58740;50.672;18.690;2022-10-16T04:09:44;14.32;76.71
71082;SHT31;58740;50.672;18.690;2022-10-16T04:12:11;14.35;76.68
71082;SHT31;58740;50.672;18.690;2022-10-16T04:14:39;14.37;76.61
71082;SHT31;58740;50.672;18.690;2022-10-16T04:17:07;14.41;76.55
71082;SHT31;58740;50.672;18.690;2022-10-16T04:19:34;14.43;76.50
71082;SHT31;58740;50.672;18.690;2022-10-16T04:22:02;14.44;76.48
71082;SHT31;58740;50.672;18.690;2022-10-16T04:24:29;14.44;76.39
71082;SHT31;58740;50.672;18.690;2022-10-16T04:26:57;14.44;76.35
71082;SHT31;58740;50.672;18.690;2022-10-16T04:29:25;14.44;76.30
71082;SHT31;58740;50.672;18.690;2022-10-16T04:31:52;14.43;76.29
71082;SHT31;58740;50.672;18.690;2022-10-16T04:34:20;14.42;76.30
71082;SHT31;58740;50.672;18.690;2022-10-16T04:36:48;14.41;76.28
71082;SHT31;58740;50.672;18.690;2022-10-16T04:39:18;14.39;76.30
71082;SHT31;58740;50.672;18.690;2022-10-16T04:41:46;14.35;76.30
71082;SHT31;58740;50.672;18.690;2022-10-16T04:44:14;14.31;76.33
71082;SHT31;58740;50.672;18.690;2022-10-16T04:46:42;14.29;76.39
71082;SHT31;58740;50.672;18.690;2022-10-16T04:49:09;14.28;76.40
71082;SHT31;58740;50.672;18.690;2022-10-16T04:51:37;14.29;76.40
71082;SHT31;58740;50.672;18.690;2022-10-16T04:54:05;14.29;76.40
71082;SHT31;58740;50.672;18.690;2022-10-16T04:56:32;14.28;76.39
71082;SHT31;58740;50.672;18.690;2022-10-16T04:59:07;14.28;76.39
71082;SHT31;58740;50.672;18.690;2022-10-16T05:01:34;14.27;76.40
71082;SHT31;58740;50.672;18.690;2022-10-16T05:04:02;14.26;76.40
71082;SHT31;58740;50.672;18.690;2022-10-16T05:06:30;14.26;76.42
71082;SHT31;58740;50.672;18.690;2022-10-16T05:08:57;14.28;76.42
71082;SHT31;58740;50.672;18.690;2022-10-16T05:11:25;14.29;76.40
71082;SHT31;58740;50.672;18.690;2022-10-16T05:13:53;14.28;76.30
71082;SHT31;58740;50.672;18.690;2022-10-16T05:16:22;14.28;76.27
71082;SHT31;58740;50.672;18.690;2022-10-16T05:18:50;14.27;76.20
71082;SHT31;58740;50.672;18.690;2022-10-16T05:21:30;14.27;76.14
71082;SHT31;58740;50.672;18.690;2022-10-16T05:23:58;14.30;76.05
71082;SHT31;58740;50.672;18.690;2022-10-16T05:26:25;14.33;76.00
71082;SHT31;58740;50.672;18.690;2022-10-16T05:28:53;14.36;75.93
71082;SHT31;58740;50.672;18.690;2022-10-16T05:31:20;14.38;75.77
71082;SHT31;58740;50.672;18.690;2022-10-16T05:33:48;14.38;75.74
71082;SHT31;58740;50.672;18.690;2022-10-16T05:36:21;14.40;75.71
71082;SHT31;58740;50.672;18.690;2022-10-16T05:38:49;14.40;75.63
71082;SHT31;58740;50.672;18.690;2022-10-16T05:41:18;14.41;75.58
71082;SHT31;58740;50.672;18.690;2022-10-16T05:43:48;14.44;75.44
71082;SHT31;58740;50.672;18.690;2022-10-16T05:46:16;14.48;75.35
71082;SHT31;58740;50.672;18.690;2022-10-16T05:48:44;14.50;75.18
71082;SHT31;58740;50.672;18.690;2022-10-16T05:51:13;14.52;75.26
71082;SHT31;58740;50.672;18.690;2022-10-16T05:53:42;14.53;75.20
71082;SHT31;58740;50.672;18.690;2022-10-16T05:56:15;14.54;75.14
71082;SHT31;58740;50.672;18.690;2022-10-16T05:58:43;14.56;75.20
71082;SHT31;58740;50.672;18.690;2022-10-16T06:01:13;14.56;75.13
71082;SHT31;58740;50.672;18.690;2022-10-16T06:03:46;14.59;75.06
71082;SHT31;58740;50.672;18.690;2022-10-16T06:06:15;14.61;75.08
71082;SHT31;58740;50.672;18.690;2022-10-16T06:08:53;14.62;74.99
71082;SHT31;58740;50.672;18.690;2022-10-16T06:11:24;14.61;75.02
71082;SHT31;58740;50.672;18.690;2022-10-16T06:13:56;14.61;75.05
71082;SHT31;58740;50.672;18.690;2022-10-16T06:16:29;14.63;74.96
71082;SHT31;58740;50.672;18.690;2022-10-16T06:18:57;14.66;74.90
71082;SHT31;58740;50.672;18.690;2022-10-16T06:21:26;14.69;74.82
71082;SHT31;58740;50.672;18.690;2022-10-16T06:23:56;14.71;74.73
71082;SHT31;58740;50.672;18.690;2022-10-16T06:26:26;14.73;74.78
71082;SHT31;58740;50.672;18.690;2022-10-16T06:28:57;14.74;74.71
71082;SHT31;58740;50.672;18.690;2022-10-16T06:31:27;14.74;74.65
71082;SHT31;58740;50.672;18.690;2022-10-16T06:33:57;14.75;74.62
71082;SHT31;58740;50.672;18.690;2022-10-16T06:36:26;14.77;74.71
71082;SHT31;58740;50.672;18.690;2022-10-16T06:38:55;14.78;74.61
71082;SHT31;58740;50.672;18.690;2022-10-16T06:41:22;14.81;74.46
71082;SHT31;58740;50.672;18.690;2022-10-16T06:43:50;14.86;74.42
71082;SHT31;58740;50.672;18.690;2022-10-16T06:46:21;14.87;74.24
71082;SHT31;58740;50.672;18.690;2022-10-16T06:48:51;14.88;74.23
71082;SHT31;58740;50.672;18.690;2022-10-16T06:51:20;14.89;74.43
71082;SHT31;58740;50.672;18.690;2022-10-16T06:53:51;14.92;74.26
71082;SHT31;58740;50.672;18.690;2022-10-16T06:56:31;14.95;74.24
71082;SHT31;58740;50.672;18.690;2022-10-16T06:59:00;14.99;74.20
71082;SHT31;58740;50.672;18.690;2022-10-16T07:01:29;15.02;74.18
71082;SHT31;58740;50.672;18.690;2022-10-16T07:03:57;15.05;73.89
71082;SHT31;58740;50.672;18.690;2022-10-16T07:06:25;15.07;73.89
71082;SHT31;58740;50.672;18.690;2022-10-16T07:08:54;15.09;73.99
71082;SHT31;58740;50.672;18.690;2022-10-16T07:11:23;15.12;74.08
71082;SHT31;58740;50.672;18.690;2022-10-16T07:13:51;15.18;73.97
71082;SHT31;58740;50.672;18.690;2022-10-16T07:16:24;15.22;74.05
71082;SHT31;58740;50.672;18.690;2022-10-16T07:18:56;15.25;73.77
71082;SHT31;58740;50.672;18.690;2022-10-16T07:21:28;15.29;73.88
71082;SHT31;58740;50.672;18.690;2022-10-16T07:24:04;15.31;73.61
71082;SHT31;58740;50.672;18.690;2022-10-16T07:26:35;15.33;73.81
71082;SHT31;58740;50.672;18.690;2022-10-16T07:29:06;15.36;73.67
71082;SHT31;58740;50.672;18.690;2022-10-16T07:31:41;15.37;73.41
71082;SHT31;58740;50.672;18.690;2022-10-16T07:34:13;15.40;73.59
71082;SHT31;58740;50.672;18.690;2022-10-16T07:36:43;15.45;73.20
71082;SHT31;58740;50.672;18.690;2022-10-16T07:39:11;15.51;73.50
71082;SHT31;58740;50.672;18.690;2022-10-16T07:41:38;15.59;73.44
71082;SHT31;58740;50.672;18.690;2022-10-16T07:44:06;15.65;73.01
71082;SHT31;58740;50.672;18.690;2022-10-16T07:46:34;15.69;72.91
71082;SHT31;58740;50.672;18.690;2022-10-16T07:49:03;15.72;72.82
71082;SHT31;58740;50.672;18.690;2022-10-16T07:51:32;15.79;72.53
71082;SHT31;58740;50.672;18.690;2022-10-16T07:54:00;15.86;72.42
71082;SHT31;58740;50.672;18.690;2022-10-16T07:56:27;15.91;72.58
71082;SHT31;58740;50.672;18.690;2022-10-16T07:58:59;15.95;72.46
71082;SHT31;58740;50.672;18.690;2022-10-16T08:01:27;15.99;72.52
71082;SHT31;58740;50.672;18.690;2022-10-16T08:03:55;16.01;72.88
71082;SHT31;58740;50.672;18.690;2022-10-16T08:06:23;16.05;72.89
71082;SHT31;58740;50.672;18.690;2022-10-16T08:08:55;16.08;72.97
71082;SHT31;58740;50.672;18.690;2022-10-16T08:11:23;16.10;73.14
71082;SHT31;58740;50.672;18.690;2022-10-16T08:13:51;16.13;73.36
71082;SHT31;58740;50.672;18.690;2022-10-16T08:16:19;16.14;73.39
71082;SHT31;58740;50.672;18.690;2022-10-16T08:18:47;16.13;73.44
71082;SHT31;58740;50.672;18.690;2022-10-16T08:21:16;16.12;73.54
71082;SHT31;58740;50.672;18.690;2022-10-16T08:23:49;16.11;73.58
71082;SHT31;58740;50.672;18.690;2022-10-16T08:26:25;16.12;73.60
71082;SHT31;58740;50.672;18.690;2022-10-16T08:28:54;16.13;73.89
71082;SHT31;58740;50.672;18.690;2022-10-16T08:31:23;16.13;74.50
71082;SHT31;58740;50.672;18.690;2022-10-16T08:33:51;16.10;75.08
71082;SHT31;58740;50.672;18.690;2022-10-16T08:36:20;16.08;75.57
71082;SHT31;58740;50.672;18.690;2022-10-16T08:38:48;16.05;75.69
71082;SHT31;58740;50.672;18.690;2022-10-16T08:41:27;16.03;75.85
71082;SHT31;58740;50.672;18.690;2022-10-16T08:47:32;16.03;76.07
71082;SHT31;58740;50.672;18.690;2022-10-16T08:50:25;16.01;76.14
71082;SHT31;58740;50.672;18.690;2022-10-16T08:52:57;16.00;76.13
71082;SHT31;58740;50.672;18.690;2022-10-16T08:55:42;15.97;76.10
71082;SHT31;58740;50.672;18.690;2022-10-16T08:58:29;15.95;76.16
71082;SHT31;58740;50.672;18.690;2022-10-16T09:01:19;15.95;76.17
71082;SHT31;58740;50.672;18.690;2022-10-16T09:20:27;16.12;75.52
71082;SHT31;58740;50.672;18.690;2022-10-16T09:23:27;16.19;75.57
71082;SHT31;58740;50.672;18.690;2022-10-16T09:25:58;16.27;75.40
71082;SHT31;58740;50.672;18.690;2022-10-16T09:28:26;16.34;74.92
71082;SHT31;58740;50.672;18.690;2022-10-16T09:30:54;16.42;74.90
71082;SHT31;58740;50.672;18.690;2022-10-16T09:33:23;16.49;74.92
71082;SHT31;58740;50.672;18.690;2022-10-16T09:35:57;16.54;74.36
71082;SHT31;58740;50.672;18.690;2022-10-16T09:38:27;16.60;74.30
71082;SHT31;58740;50.672;18.690;2022-10-16T09:41:02;16.67;73.95
71082;SHT31;58740;50.672;18.690;2022-10-16T09:43:54;16.72;73.78
71082;SHT31;58740;50.672;18.690;2022-10-16T09:49:04;16.82;73.53
71082;SHT31;58740;50.672;18.690;2022-10-16T09:51:49;16.87;73.33
71082;SHT31;58740;50.672;18.690;2022-10-16T09:54:19;16.92;73.15
71082;SHT31;58740;50.672;18.690;2022-10-16T09:56:48;16.96;72.63
71082;SHT31;58740;50.672;18.690;2022-10-16T09:59:19;17.00;72.76
71082;SHT31;58740;50.672;18.690;2022-10-16T10:01:54;17.05;72.83
71082;SHT31;58740;50.672;18.690;2022-10-16T10:04:23;17.07;72.87
71082;SHT31;58740;50.672;18.690;2022-10-16T10:06:53;17.10;72.84
71082;SHT31;58740;50.672;18.690;2022-10-16T10:09:24;17.12;72.64
71082;SHT31;58740;50.672;18.690;2022-10-16T10:11:57;17.17;72.00
71082;SHT31;58740;50.672;18.690;2022-10-16T10:17:25;17.22;72.39
71082;SHT31;58740;50.672;18.690;2022-10-16T10:19:57;17.25;72.20
71082;SHT31;58740;50.672;18.690;2022-10-16T10:22:52;17.27;72.07
71082;SHT31;58740;50.672;18.690;2022-10-16T10:25:35;17.27;72.26
71082;SHT31;58740;50.672;18.690;2022-10-16T10:34:56;17.41;71.96
71082;SHT31;58740;50.672;18.690;2022-10-16T10:47:01;17.49;71.50
71082;SHT31;58740;50.672;18.690;2022-10-16T10:52:28;17.59;71.76
71082;SHT31;58740;50.672;18.690;2022-10-16T10:55:28;17.66;71.72
71082;SHT31;58740;50.672;18.690;2022-10-16T10:58:16;17.72;71.39
71082;SHT31;58740;50.672;18.690;2022-10-16T11:06:57;17.73;70.80
71082;SHT31;58740;50.672;18.690;2022-10-16T11:09:42;17.71;70.60
71082;SHT31;58740;50.672;18.690;2022-10-16T11:12:21;17.70;70.39
71082;SHT31;58740;50.672;18.690;2022-10-16T11:15:03;17.71;70.99
71082;SHT31;58740;50.672;18.690;2022-10-16T11:26:50;17.85;70.54
71082;SHT31;58740;50.672;18.690;2022-10-16T11:29:28;17.87;70.84
71082;SHT31;58740;50.672;18.690;2022-10-16T11:32:00;17.89;70.85
71082;SHT31;58740;50.672;18.690;2022-10-16T11:34:45;17.92;70.03
71082;SHT31;58740;50.672;18.690;2022-10-16T11:37:20;17.97;70.44
71082;SHT31;58740;50.672;18.690;2022-10-16T11:39:59;18.02;70.62
71082;SHT31;58740;50.672;18.690;2022-10-16T11:42:54;18.10;69.75
71082;SHT31;58740;50.672;18.690;2022-10-16T11:45:35;18.16;69.52
71082;SHT31;58740;50.672;18.690;2022-10-16T11:48:26;18.19;69.80
71082;SHT31;58740;50.672;18.690;2022-10-16T11:51:06;18.20;69.75
71082;SHT31;58740;50.672;18.690;2022-10-16T11:56:45;18.18;69.94
71082;SHT31;58740;50.672;18.690;2022-10-16T11:59:28;18.20;70.25
71082;SHT31;58740;50.672;18.690;2022-10-16T12:10:38;18.32;69.76
71082;SHT31;58740;50.672;18.690;2022-10-16T12:16:05;18.35;69.48
71082;SHT31;58740;50.672;18.690;2022-10-16T12:18:40;18.37;69.67
71082;SHT31;58740;50.672;18.690;2022-10-16T12:21:14;18.38;69.54
71082;SHT31;58740;50.672;18.690;2022-10-16T12:23:46;18.40;69.75
71082;SHT31;58740;50.672;18.690;2022-10-16T12:26:25;18.44;69.77
71082;SHT31;58740;50.672;18.690;2022-10-16T12:29:12;18.48;69.52
71082;SHT31;58740;50.672;18.690;2022-10-16T12:31:50;18.51;69.15
71082;SHT31;58740;50.672;18.690;2022-10-16T12:37:08;18.55;68.78
71082;SHT31;58740;50.672;18.690;2022-10-16T12:39:39;18.56;68.91
71082;SHT31;58740;50.672;18.690;2022-10-16T12:47:59;18.71;68.85
71082;SHT31;58740;50.672;18.690;2022-10-16T12:50:33;18.77;68.79
71082;SHT31;58740;50.672;18.690;2022-10-16T12:53:17;18.84;68.36
71082;SHT31;58740;50.672;18.690;2022-10-16T12:56:00;18.89;68.22
71082;SHT31;58740;50.672;18.690;2022-10-16T12:58:48;18.94;67.65
71082;SHT31;58740;50.672;18.690;2022-10-16T13:01:54;18.99;67.56
71082;SHT31;58740;50.672;18.690;2022-10-16T13:05:03;19.07;67.57
71082;SHT31;58740;50.672;18.690;2022-10-16T13:16:23;19.25;67.83
71082;SHT31;58740;50.672;18.690;2022-10-16T13:30:29;19.05;67.56
71082;SHT31;58740;50.672;18.690;2022-10-16T13:33:02;19.02;67.53
71082;SHT31;58740;50.672;18.690;2022-10-16T13:35:46;19.00;67.39
71082;SHT31;58740;50.672;18.690;2022-10-16T13:38:19;19.00;67.50
71082;SHT31;58740;50.672;18.690;2022-10-16T13:40:57;19.00;67.34
71082;SHT31;58740;50.672;18.690;2022-10-16T13:43:35;18.99;67.29
71082;SHT31;58740;50.672;18.690;2022-10-16T13:46:11;18.97;67.27
71082;SHT31;58740;50.672;18.690;2022-10-16T13:48:59;18.95;66.78
71082;SHT31;58740;50.672;18.690;2022-10-16T13:51:39;18.94;66.87
71082;SHT31;58740;50.672;18.690;2022-10-16T13:54:09;18.94;66.86
71082;SHT31;58740;50.672;18.690;2022-10-16T13:56:39;18.95;66.77
71082;SHT31;58740;50.672;18.690;2022-10-16T13:59:22;18.94;66.94
71082;SHT31;58740;50.672;18.690;2022-10-16T14:01:53;18.94;67.42
71082;SHT31;58740;50.672;18.690;2022-10-16T14:04:25;18.93;67.31
71082;SHT31;58740;50.672;18.690;2022-10-16T14:06:59;18.91;67.02
71082;SHT31;58740;50.672;18.690;2022-10-16T14:09:28;18.89;67.22
71082;SHT31;58740;50.672;18.690;2022-10-16T14:11:58;18.87;67.27
71082;SHT31;58740;50.672;18.690;2022-10-16T14:14:50;18.84;67.38
71082;SHT31;58740;50.672;18.690;2022-10-16T14:17:28;18.82;67.75
71082;SHT31;58740;50.672;18.690;2022-10-16T14:20:00;18.80;67.81
71082;SHT31;58740;50.672;18.690;2022-10-16T14:22:38;18.76;67.92
71082;SHT31;58740;50.672;18.690;2022-10-16T14:27:59;18.67;67.86
71082;SHT31;58740;50.672;18.690;2022-10-16T14:30:33;18.62;67.86
71082;SHT31;58740;50.672;18.690;2022-10-16T14:33:04;18.58;67.92
71082;SHT31;58740;50.672;18.690;2022-10-16T14:35:58;18.55;68.08
71082;SHT31;58740;50.672;18.690;2022-10-16T14:38:30;18.52;68.30
71082;SHT31;58740;50.672;18.690;2022-10-16T14:40:59;18.52;68.35
71082;SHT31;58740;50.672;18.690;2022-10-16T14:43:38;18.50;68.48
71082;SHT31;58740;50.672;18.690;2022-10-16T14:46:11;18.50;68.62
71082;SHT31;58740;50.672;18.690;2022-10-16T14:48:44;18.48;68.34
71082;SHT31;58740;50.672;18.690;2022-10-16T14:51:18;18.45;68.33
71082;SHT31;58740;50.672;18.690;2022-10-16T14:53:47;18.44;68.48
71082;SHT31;58740;50.672;18.690;2022-10-16T14:56:17;18.41;68.43
71082;SHT31;58740;50.672;18.690;2022-10-16T14:58:49;18.39;68.43
71082;SHT31;58740;50.672;18.690;2022-10-16T15:01:18;18.39;68.58
71082;SHT31;58740;50.672;18.690;2022-10-16T15:03:47;18.38;68.74
71082;SHT31;58740;50.672;18.690;2022-10-16T15:06:15;18.37;68.82
71082;SHT31;58740;50.672;18.690;2022-10-16T15:08:43;18.35;68.86
71082;SHT31;58740;50.672;18.690;2022-10-16T15:11:15;18.35;68.98
71082;SHT31;58740;50.672;18.690;2022-10-16T15:13:46;18.31;69.03
71082;SHT31;58740;50.672;18.690;2022-10-16T15:16:14;18.28;69.10
71082;SHT31;58740;50.672;18.690;2022-10-16T15:18:43;18.25;69.16
71082;SHT31;58740;50.672;18.690;2022-10-16T15:21:30;18.22;69.27
71082;SHT31;58740;50.672;18.690;2022-10-16T15:23:59;18.21;69.40
71082;SHT31;58740;50.672;18.690;2022-10-16T15:26:28;18.20;69.48
71082;SHT31;58740;50.672;18.690;2022-10-16T15:28:57;18.19;69.51
71082;SHT31;58740;50.672;18.690;2022-10-16T15:31:25;18.17;69.57
71082;SHT31;58740;50.672;18.690;2022-10-16T15:33:53;18.15;69.67
71082;SHT31;58740;50.672;18.690;2022-10-16T15:36:26;18.11;69.76
71082;SHT31;58740;50.672;18.690;2022-10-16T15:38:56;18.07;69.82
71082;SHT31;58740;50.672;18.690;2022-10-16T15:41:24;18.03;69.96
71082;SHT31;58740;50.672;18.690;2022-10-16T15:43:52;18.00;70.05
71082;SHT31;58740;50.672;18.690;2022-10-16T15:46:21;17.97;70.10
71082;SHT31;58740;50.672;18.690;2022-10-16T15:48:51;17.95;70.18
71082;SHT31;58740;50.672;18.690;2022-10-16T15:51:25;17.93;70.27
71082;SHT31;58740;50.672;18.690;2022-10-16T15:53:56;17.90;70.25
71082;SHT31;58740;50.672;18.690;2022-10-16T15:56:24;17.86;70.21
71082;SHT31;58740;50.672;18.690;2022-10-16T15:58:52;17.82;70.34
71082;SHT31;58740;50.672;18.690;2022-10-16T16:01:21;17.77;70.31
71082;SHT31;58740;50.672;18.690;2022-10-16T16:03:52;17.72;70.29
71082;SHT31;58740;50.672;18.690;2022-10-16T16:06:21;17.67;70.40
71082;SHT31;58740;50.672;18.690;2022-10-16T16:08:52;17.64;70.46
71082;SHT31;58740;50.672;18.690;2022-10-16T16:11:20;17.61;70.49
71082;SHT31;58740;50.672;18.690;2022-10-16T16:13:51;17.60;70.53
71082;SHT31;58740;50.672;18.690;2022-10-16T16:16:18;17.56;70.54
71082;SHT31;58740;50.672;18.690;2022-10-16T16:18:47;17.53;70.60
71082;SHT31;58740;50.672;18.690;2022-10-16T16:21:16;17.49;70.66
71082;SHT31;58740;50.672;18.690;2022-10-16T16:23:44;17.44;70.75
71082;SHT31;58740;50.672;18.690;2022-10-16T16:26:13;17.41;70.86
71082;SHT31;58740;50.672;18.690;2022-10-16T16:28:51;17.38;70.95
71082;SHT31;58740;50.672;18.690;2022-10-16T16:31:25;17.36;71.06
71082;SHT31;58740;50.672;18.690;2022-10-16T16:33:55;17.33;71.17
71082;SHT31;58740;50.672;18.690;2022-10-16T16:36:24;17.31;71.26
71082;SHT31;58740;50.672;18.690;2022-10-16T16:38:53;17.30;71.33
71082;SHT31;58740;50.672;18.690;2022-10-16T16:41:22;17.27;71.37
71082;SHT31;58740;50.672;18.690;2022-10-16T16:43:53;17.24;71.47
71082;SHT31;58740;50.672;18.690;2022-10-16T16:46:22;17.21;71.54
71082;SHT31;58740;50.672;18.690;2022-10-16T16:48:49;17.17;71.63
71082;SHT31;58740;50.672;18.690;2022-10-16T16:51:18;17.14;71.72
71082;SHT31;58740;50.672;18.690;2022-10-16T16:53:49;17.11;71.84
71082;SHT31;58740;50.672;18.690;2022-10-16T16:56:19;17.09;71.94
71082;SHT31;58740;50.672;18.690;2022-10-16T16:58:49;17.06;72.02
71082;SHT31;58740;50.672;18.690;2022-10-16T17:01:20;17.03;72.10
71082;SHT31;58740;50.672;18.690;2022-10-16T17:03:51;17.00;72.17
71082;SHT31;58740;50.672;18.690;2022-10-16T17:06:22;16.98;72.19
71082;SHT31;58740;50.672;18.690;2022-10-16T17:08:54;16.96;72.29
71082;SHT31;58740;50.672;18.690;2022-10-16T17:11:23;16.91;72.32
71082;SHT31;58740;50.672;18.690;2022-10-16T17:13:53;16.90;72.41
71082;SHT31;58740;50.672;18.690;2022-10-16T17:16:25;16.89;72.48
71082;SHT31;58740;50.672;18.690;2022-10-16T17:19:04;16.88;72.51
71082;SHT31;58740;50.672;18.690;2022-10-16T17:21:34;16.89;72.59
71082;SHT31;58740;50.672;18.690;2022-10-16T17:24:04;16.88;72.62
71082;SHT31;58740;50.672;18.690;2022-10-16T17:26:32;16.86;72.61
71082;SHT31;58740;50.672;18.690;2022-10-16T17:29:04;16.83;72.68
71082;SHT31;58740;50.672;18.690;2022-10-16T17:31:33;16.79;72.69
71082;SHT31;58740;50.672;18.690;2022-10-16T17:34:04;16.77;72.73
71082;SHT31;58740;50.672;18.690;2022-10-16T17:36:35;16.75;72.81
71082;SHT31;58740;50.672;18.690;2022-10-16T17:39:05;16.72;72.85
71082;SHT31;58740;50.672;18.690;2022-10-16T17:41:35;16.69;72.90
71082;SHT31;58740;50.672;18.690;2022-10-16T17:44:03;16.68;72.88
71082;SHT31;58740;50.672;18.690;2022-10-16T17:46:33;16.65;72.91
71082;SHT31;58740;50.672;18.690;2022-10-16T17:49:08;16.63;72.97
71082;SHT31;58740;50.672;18.690;2022-10-16T17:51:36;16.61;73.03
71082;SHT31;58740;50.672;18.690;2022-10-16T17:54:05;16.60;73.04
71082;SHT31;58740;50.672;18.690;2022-10-16T17:56:33;16.60;73.09
71082;SHT31;58740;50.672;18.690;2022-10-16T17:59:02;16.60;73.09
71082;SHT31;58740;50.672;18.690;2022-10-16T18:01:32;16.59;73.07
71082;SHT31;58740;50.672;18.690;2022-10-16T18:04:06;16.59;72.99
71082;SHT31;58740;50.672;18.690;2022-10-16T18:06:42;16.56;73.02